This is the latest recevied weather packets stored in our database for station/object SA7AHC. If no packets are shown the sender has not sent any weather packets the latest 10 day(s).
| Time | Temp. | Humidity | Pressure | Rain* | Wind** | Luminosity | Snow |
|---|---|---|---|---|---|---|---|
| 1777564598 | 22.78° C | 27% | 1028.1 hPa | 0 mm | - | 299 W/m² | - |
| 1777563998 | 22.78° C | 28% | 1028.1 hPa | 0 mm | - | 320 W/m² | - |
| 1777563395 | 22.22° C | 28% | 1028 hPa | 0 mm | - | 283 W/m² | - |
| 1777562797 | 22.22° C | 28% | 1028 hPa | 0 mm | - | 378 W/m² | - |
| 1777562200 | 22.22° C | 28% | 1028.1 hPa | 0 mm | - | 376 W/m² | - |
| 1777561611 | 22.78° C | 28% | 1028.2 hPa | 0 mm | - | 422 W/m² | - |
| 1777560994 | 22.78° C | 29% | 1028.2 hPa | 0 mm | - | 404 W/m² | - |
| 1777560392 | 22.78° C | 28% | 1028.3 hPa | 0 mm | - | 468 W/m² | - |
| 1777559789 | 22.78° C | 31% | 1028.5 hPa | 0 mm | - | 487 W/m² | - |
| 1777559192 | 21.67° C | 31% | 1028.4 hPa | 0 mm | - | 506 W/m² | - |
| 1777558894 | 21.11° C | 33% | 1028.4 hPa | 0 mm | - | 520 W/m² | - |
| 1777557986 | 21.11° C | 35% | 1028.6 hPa | 0 mm | - | 524 W/m² | - |
| 1777557388 | 20.56° C | 35% | 1028.6 hPa | 0 mm | - | 529 W/m² | - |
| 1777556783 | 20.56° C | 35% | 1028.8 hPa | 0 mm | - | 550 W/m² | - |
| 1777556180 | 20.56° C | 35% | 1028.8 hPa | 0 mm | - | 575 W/m² | - |
| 1777555585 | 20.56° C | 35% | 1028.8 hPa | 0 mm | - | 589 W/m² | - |
| 1777554979 | 20.56° C | 35% | 1028.9 hPa | 0 mm | - | 603 W/m² | - |
| 1777554373 | 20.56° C | 35% | 1028.9 hPa | 0 mm | - | 626 W/m² | - |
| 1777553774 | 20.56° C | 37% | 1029 hPa | 0 mm | - | 649 W/m² | - |
| 1777553172 | 20.56° C | 36% | 1029.3 hPa | 0 mm | - | 635 W/m² | - |
| 1777552570 | 20° C | 36% | 1029.2 hPa | 0 mm | - | 687 W/m² | - |
| 1777551970 | 19.44° C | 40% | 1029.2 hPa | 0 mm | - | 675 W/m² | - |
| 1777551380 | 19.44° C | 38% | 1029.3 hPa | 0 mm | - | 686 W/m² | - |
| 1777550767 | 18.89° C | 37% | 1029.2 hPa | 0 mm | - | 485 W/m² | - |
| 1777550166 | 19.44° C | 38% | 1029.2 hPa | 0 mm | - | 603 W/m² | - |
* Rain latest hour (hover to see other rain measurements)
** Current wind speed in m/s (hover to see current wind gust speed)